Time;durP1;ratioP1;P1;durP2;ratioP2;P2;SDS_P1;SDS_P2;PMS_P1;PMS_P2;Temp;Humidity;BMP_temperature;BMP_pressure;BME280_temperature;BME280_humidity;BME280_pressure;Samples;Min_cycle;Max_cycle;Signal;HPM_P1;HPM_P2
2023/08/23 00:00:04;;;;;;;10.07;7.47;;;22.90;31.50;;;;;;5005441;28;46529;-67
2023/08/23 00:02:30;;;;;;;14.80;7.53;;;23.00;31.50;;;;;;5006607;28;46599;-65
2023/08/23 00:04:55;;;;;;;11.93;7.67;;;23.00;31.40;;;;;;5003564;28;47248;-66
2023/08/23 00:07:21;;;;;;;13.50;7.30;;;23.10;30.40;;;;;;5003960;28;46448;-68
2023/08/23 00:09:46;;;;;;;12.03;7.00;;;23.10;31.00;;;;;;5005149;28;46345;-65
2023/08/23 00:12:12;;;;;;;13.77;6.80;;;23.10;30.60;;;;;;5004281;28;46357;-66
2023/08/23 00:14:38;;;;;;;13.47;7.10;;;23.20;30.50;;;;;;5001984;28;46992;-66
2023/08/23 00:17:04;;;;;;;13.03;7.73;;;23.20;30.00;;;;;;5005152;28;46481;-67
2023/08/23 00:19:30;;;;;;;11.53;7.40;;;23.10;30.90;;;;;;5004406;28;46722;-65
2023/08/23 00:21:55;;;;;;;12.70;7.70;;;23.10;31.10;;;;;;5005744;28;46568;-67
2023/08/23 00:24:21;;;;;;;11.50;7.00;;;23.10;31.20;;;;;;5005429;28;46191;-66
2023/08/23 00:26:46;;;;;;;11.80;7.73;;;23.10;30.50;;;;;;5020355;28;45903;-67
2023/08/23 00:29:12;;;;;;;12.03;7.03;;;23.10;31.30;;;;;;5004747;28;46539;-67
2023/08/23 00:31:38;;;;;;;19.40;7.70;;;23.10;31.40;;;;;;5006213;28;46561;-66
2023/08/23 00:34:03;;;;;;;13.33;7.87;;;23.10;32.80;;;;;;5006462;28;46442;-67
2023/08/23 00:36:29;;;;;;;16.03;7.90;;;22.90;31.30;;;;;;5003761;28;46417;-65
2023/08/23 00:38:55;;;;;;;9.90;7.50;;;22.90;32.40;;;;;;5005377;28;46555;-66
2023/08/23 00:41:22;;;;;;;13.77;7.30;;;22.80;32.70;;;;;;5002027;28;45910;-67
2023/08/23 00:43:47;;;;;;;12.10;7.77;;;22.80;32.80;;;;;;5003977;28;46913;-68
2023/08/23 00:46:15;;;;;;;16.03;7.80;;;22.80;31.90;;;;;;5006634;28;46670;-67
2023/08/23 00:48:41;;;;;;;11.37;7.60;;;22.80;32.80;;;;;;5006349;28;46746;-66
2023/08/23 00:51:08;;;;;;;16.40;7.93;;;22.80;32.70;;;;;;5020141;28;46469;-67
2023/08/23 00:53:34;;;;;;;17.17;7.83;;;22.80;32.70;;;;;;5005706;28;47359;-66
2023/08/23 00:56:00;;;;;;;12.90;6.70;;;22.80;32.70;;;;;;5007496;28;46518;-66
2023/08/23 00:58:26;;;;;;;10.80;7.77;;;22.80;32.60;;;;;;5004079;28;46483;-66
2023/08/23 01:00:54;;;;;;;13.53;7.27;;;22.90;32.60;;;;;;5005994;28;46707;-65
2023/08/23 01:03:20;;;;;;;15.20;7.87;;;22.80;32.60;;;;;;5006065;28;47058;-68
2023/08/23 01:06:05;;;;;;;16.90;7.50;;;22.80;31.80;;;;;;5002798;28;46747;-67
2023/08/23 01:08:56;;;;;;;11.63;7.77;;;22.80;32.90;;;;;;4988945;28;46646;-68
2023/08/23 01:11:27;;;;;;;12.30;7.40;;;22.70;33.20;;;;;;5006303;28;46712;-66
2023/08/23 01:14:13;;;;;;;10.93;6.67;;;22.60;33.30;;;;;;5003637;28;46472;-65
2023/08/23 01:16:39;;;;;;;11.20;7.23;;;22.60;32.70;;;;;;5005611;28;46436;-67
2023/08/23 01:19:27;;;;;;;12.47;7.47;;;22.60;33.80;;;;;;5006820;28;46403;-67
2023/08/23 01:21:56;;;;;;;12.23;7.40;;;22.50;34.00;;;;;;5009133;28;45891;-66
2023/08/23 01:24:22;;;;;;;13.63;7.83;;;22.40;34.40;;;;;;5008210;28;47137;-67
2023/08/23 01:26:48;;;;;;;11.83;7.70;;;22.20;34.30;;;;;;5007205;28;46761;-66
2023/08/23 01:29:14;;;;;;;11.30;7.50;;;22.20;35.40;;;;;;5009609;28;46991;-65
2023/08/23 01:31:43;;;;;;;12.77;8.40;;;22.20;35.40;;;;;;5009875;28;46437;-66
2023/08/23 01:34:25;;;;;;;12.83;8.60;;;22.10;35.90;;;;;;5009258;28;46437;-67
2023/08/23 01:36:54;;;;;;;14.30;7.97;;;22.00;34.80;;;;;;5004342;28;46708;-66
2023/08/23 01:39:25;;;;;;;11.63;8.67;;;22.00;35.90;;;;;;5009671;28;46461;-67
2023/08/23 01:41:51;;;;;;;10.47;7.40;;;22.00;35.90;;;;;;5006309;28;46467;-66
2023/08/23 01:44:17;;;;;;;11.97;7.80;;;22.00;35.90;;;;;;5008936;28;47368;-66
2023/08/23 01:46:42;;;;;;;11.80;7.93;;;22.00;34.80;;;;;;5006611;28;46465;-66
2023/08/23 01:49:09;;;;;;;15.43;7.97;;;22.00;35.90;;;;;;5008442;28;46450;-66
2023/08/23 01:51:34;;;;;;;11.93;7.77;;;22.10;36.00;;;;;;5007106;28;46709;-65
2023/08/23 01:54:00;;;;;;;11.73;7.13;;;22.10;36.10;;;;;;5006421;28;46474;-68
2023/08/23 01:56:25;;;;;;;12.70;8.07;;;22.20;35.00;;;;;;5006525;28;46442;-67
2023/08/23 01:58:51;;;;;;;13.67;7.70;;;22.20;36.10;;;;;;5006329;28;45923;-69
2023/08/23 02:01:16;;;;;;;16.77;9.03;;;22.20;36.10;;;;;;5007704;28;46426;-65
2023/08/23 02:03:42;;;;;;;10.57;7.53;;;22.30;36.10;;;;;;5004995;28;46716;-67
2023/08/23 02:06:08;;;;;;;19.27;9.03;;;22.30;35.00;;;;;;5022965;28;46589;-68
2023/08/23 02:08:35;;;;;;;15.37;7.83;;;22.30;35.80;;;;;;5008874;28;46540;-66
2023/08/23 02:11:01;;;;;;;12.30;8.13;;;22.40;35.60;;;;;;5008770;28;46425;-66
2023/08/23 02:13:26;;;;;;;11.73;7.90;;;22.40;35.30;;;;;;5007491;28;46974;-67
2023/08/23 02:15:52;;;;;;;22.43;8.70;;;22.40;34.50;;;;;;5005607;28;46526;-65
2023/08/23 02:18:19;;;;;;;16.87;7.93;;;22.40;35.30;;;;;;5009266;28;46434;-65
2023/08/23 02:20:44;;;;;;;15.20;7.97;;;22.40;35.60;;;;;;5008919;28;46524;-66
2023/08/23 02:23:10;;;;;;;13.30;8.60;;;22.30;36.10;;;;;;5007395;28;47044;-66
2023/08/23 02:25:35;;;;;;;15.47;9.10;;;22.30;36.10;;;;;;5007117;28;46428;-65
2023/08/23 02:28:01;;;;;;;11.90;8.27;;;22.20;35.00;;;;;;5007992;28;46626;-65
2023/08/23 02:30:27;;;;;;;10.27;7.90;;;22.10;36.20;;;;;;5009418;28;46533;-66
2023/08/23 02:32:52;;;;;;;11.30;7.90;;;22.00;37.00;;;;;;5007963;28;47308;-68
2023/08/23 02:35:18;;;;;;;13.73;8.47;;;21.90;37.50;;;;;;5005367;28;46366;-66
2023/08/23 02:37:43;;;;;;;11.60;8.93;;;21.80;37.00;;;;;;4997643;28;46663;-65
2023/08/23 02:40:09;;;;;;;14.57;8.37;;;21.70;38.10;;;;;;5005545;28;46627;-67
2023/08/23 02:42:35;;;;;;;13.70;8.77;;;21.70;38.30;;;;;;5006661;28;46117;-66
2023/08/23 02:45:00;;;;;;;18.10;8.90;;;21.70;38.40;;;;;;5006889;28;46268;-67
2023/08/23 02:47:26;;;;;;;12.57;8.50;;;21.70;37.40;;;;;;5006429;28;46656;-66
2023/08/23 02:49:51;;;;;;;14.90;8.10;;;21.70;38.00;;;;;;5010886;28;46392;-66
2023/08/23 02:52:17;;;;;;;12.10;8.27;;;21.80;37.70;;;;;;5006875;28;45949;-67
2023/08/23 02:54:42;;;;;;;14.17;7.87;;;21.80;37.70;;;;;;5007996;28;46518;-67
2023/08/23 02:57:08;;;;;;;15.83;9.67;;;21.80;37.10;;;;;;5004796;28;46419;-66
2023/08/23 02:59:34;;;;;;;13.00;8.77;;;21.70;38.10;;;;;;5009561;28;46845;-66
2023/08/23 03:01:59;;;;;;;13.23;8.17;;;21.70;38.20;;;;;;5005686;28;46506;-68
2023/08/23 03:04:25;;;;;;;11.67;8.20;;;21.60;38.30;;;;;;5007039;28;46564;-68
2023/08/23 03:06:50;;;;;;;13.23;8.37;;;21.60;38.00;;;;;;5005364;28;46681;-67
2023/08/23 03:09:16;;;;;;;13.00;7.93;;;21.50;38.90;;;;;;5004300;28;46891;-67
2023/08/23 03:11:41;;;;;;;22.93;9.00;;;21.40;39.30;;;;;;5005684;28;47080;-66
2023/08/23 03:14:08;;;;;;;14.37;9.30;;;21.40;39.50;;;;;;5022104;28;46559;-65
2023/08/23 03:16:34;;;;;;;12.33;8.27;;;21.30;38.70;;;;;;5008005;28;46672;-66
2023/08/23 03:18:59;;;;;;;10.97;8.60;;;21.30;39.60;;;;;;5007894;28;47176;-67
2023/08/23 03:21:25;;;;;;;14.03;8.67;;;21.30;39.60;;;;;;5007290;28;46435;-65
2023/08/23 03:23:50;;;;;;;14.83;8.37;;;21.30;39.80;;;;;;5007271;28;46540;-66
2023/08/23 03:26:16;;;;;;;12.27;8.83;;;21.30;38.90;;;;;;5004846;28;46736;-65
2023/08/23 03:28:41;;;;;;;14.73;9.20;;;21.30;39.90;;;;;;5007846;28;46446;-66
2023/08/23 03:31:07;;;;;;;11.33;8.03;;;21.20;39.80;;;;;;5008012;28;46449;-66
2023/08/23 03:33:33;;;;;;;14.60;8.23;;;21.20;40.00;;;;;;5005729;28;46639;-66
2023/08/23 03:35:59;;;;;;;14.20;8.20;;;21.20;39.70;;;;;;5005703;28;46716;-66
2023/08/23 03:38:24;;;;;;;15.20;8.63;;;21.20;40.20;;;;;;5005490;28;46591;-68
2023/08/23 03:40:51;;;;;;;18.57;8.70;;;21.20;40.00;;;;;;5004681;28;47942;-66
2023/08/23 03:43:17;;;;;;;23.67;9.00;;;21.20;40.00;;;;;;5006742;28;46512;-67
2023/08/23 03:45:50;;;;;;;14.80;8.73;;;21.20;39.30;;;;;;4995064;28;46746;-66
2023/08/23 03:48:18;;;;;;;12.87;10.10;;;21.10;40.20;;;;;;5005886;28;46569;-65
2023/08/23 03:50:44;;;;;;;13.90;10.57;;;21.10;40.30;;;;;;5006464;28;47984;-66
2023/08/23 03:53:10;;;;;;;29.43;10.60;;;21.10;40.60;;;;;;5003573;28;46483;-68
2023/08/23 03:55:36;;;;;;;13.90;10.13;;;21.10;40.80;;;;;;5003259;28;46700;-68
2023/08/23 03:58:05;;;;;;;22.47;10.27;;;21.00;40.00;;;;;;5004282;28;46741;-68
2023/08/23 04:00:31;;;;;;;14.30;9.70;;;21.10;41.30;;;;;;5006725;28;46471;-67
2023/08/23 04:02:57;;;;;;;14.30;9.67;;;21.10;41.40;;;;;;5004561;28;46492;-66
2023/08/23 04:05:22;;;;;;;17.47;11.07;;;21.10;41.60;;;;;;5005815;28;46490;-65
2023/08/23 04:07:48;;;;;;;20.40;12.13;;;21.00;40.80;;;;;;5004225;28;46590;-66
2023/08/23 04:10:14;;;;;;;18.67;11.20;;;21.00;41.80;;;;;;5003593;28;46488;-65
2023/08/23 04:12:39;;;;;;;17.30;11.37;;;21.00;42.20;;;;;;5005368;28;46378;-65
2023/08/23 04:15:05;;;;;;;16.13;10.83;;;21.00;42.60;;;;;;5001740;28;46905;-66
2023/08/23 04:17:31;;;;;;;17.60;12.10;;;21.00;41.70;;;;;;5003306;28;45834;-67
2023/08/23 04:19:56;;;;;;;23.17;11.70;;;21.00;42.50;;;;;;5005255;28;46625;-66
2023/08/23 04:22:22;;;;;;;14.73;9.93;;;21.00;42.60;;;;;;5006466;28;46463;-66
2023/08/23 04:24:51;;;;;;;12.07;9.10;;;20.90;42.80;;;;;;4994875;28;46772;-66
2023/08/23 04:27:17;;;;;;;13.83;10.23;;;20.90;42.20;;;;;;5009397;28;46707;-65
2023/08/23 04:29:42;;;;;;;16.33;9.57;;;20.90;43.30;;;;;;4987555;28;47114;-66
2023/08/23 04:32:12;;;;;;;14.50;8.90;;;20.80;43.40;;;;;;5005839;28;46559;-68
2023/08/23 04:34:38;;;;;;;11.80;8.80;;;20.70;43.50;;;;;;5005150;28;46398;-66
2023/08/23 04:37:05;;;;;;;11.20;8.50;;;20.70;42.40;;;;;;5007539;28;46854;-65
2023/08/23 04:39:30;;;;;;;20.43;9.57;;;20.70;43.30;;;;;;5005621;28;46670;-68
2023/08/23 04:41:56;;;;;;;14.90;9.87;;;20.70;43.50;;;;;;5005034;28;46518;-66
2023/08/23 04:44:22;;;;;;;14.47;9.17;;;20.70;43.40;;;;;;5004366;28;46539;-66
2023/08/23 04:46:47;;;;;;;13.77;9.80;;;20.60;42.70;;;;;;5007091;28;46585;-65
2023/08/23 04:49:13;;;;;;;14.50;10.20;;;20.60;43.80;;;;;;5008836;28;47200;-65
2023/08/23 04:51:39;;;;;;;14.10;9.50;;;20.50;43.80;;;;;;5006961;28;46509;-66
2023/08/23 04:54:04;;;;;;;12.93;9.10;;;20.60;43.80;;;;;;5009820;28;46723;-68
2023/08/23 04:56:30;;;;;;;13.67;9.80;;;20.60;42.70;;;;;;5010886;28;46439;-66
2023/08/23 04:58:55;;;;;;;14.40;9.60;;;20.60;43.70;;;;;;5010322;28;46406;-66
2023/08/23 05:01:21;;;;;;;18.27;10.10;;;20.70;42.50;;;;;;5009732;28;46528;-67
2023/08/23 05:03:46;;;;;;;13.60;9.20;;;20.70;43.40;;;;;;5009368;28;46422;-68
2023/08/23 05:06:12;;;;;;;11.67;9.30;;;20.90;41.70;;;;;;5009888;28;46517;-66
2023/08/23 05:08:38;;;;;;;18.77;9.13;;;20.90;42.70;;;;;;5011190;28;46493;-67
2023/08/23 05:11:03;;;;;;;17.00;10.60;;;21.00;42.30;;;;;;5007869;28;46673;-66
2023/08/23 05:13:29;;;;;;;21.47;10.10;;;21.10;41.80;;;;;;5008356;28;46461;-66
2023/08/23 05:15:56;;;;;;;17.33;11.20;;;21.30;40.20;;;;;;5008458;28;45907;-66
2023/08/23 05:18:23;;;;;;;21.47;10.13;;;21.30;41.20;;;;;;5002612;28;46541;-66
2023/08/23 05:20:54;;;;;;;20.33;11.30;;;21.40;41.00;;;;;;5013212;28;46662;-67
2023/08/23 05:23:21;;;;;;;13.03;9.63;;;21.60;40.50;;;;;;5009839;28;46719;-66
2023/08/23 05:25:46;;;;;;;16.63;10.80;;;22.10;39.20;;;;;;5009030;28;45981;-66
2023/08/23 05:28:12;;;;;;;28.10;10.33;;;22.00;40.10;;;;;;5011639;28;46512;-67
2023/08/23 05:30:38;;;;;;;18.90;9.67;;;22.20;40.10;;;;;;5008566;28;46002;-67
2023/08/23 05:33:04;;;;;;;19.53;8.83;;;22.40;39.60;;;;;;5008459;28;46461;-66
2023/08/23 05:35:30;;;;;;;15.60;9.23;;;22.50;39.00;;;;;;5009405;28;46694;-67
2023/08/23 05:37:56;;;;;;;11.13;8.27;;;23.00;37.10;;;;;;5010507;28;46417;-67
2023/08/23 05:40:22;;;;;;;13.33;8.73;;;23.20;37.40;;;;;;5010345;28;46396;-65
2023/08/23 05:42:47;;;;;;;14.63;9.53;;;23.20;37.00;;;;;;5011207;28;46402;-66
2023/08/23 05:45:13;;;;;;;13.20;8.47;;;23.70;37.30;;;;;;5009973;28;46374;-66
2023/08/23 05:47:38;;;;;;;15.37;9.10;;;24.30;33.70;;;;;;5009457;28;46475;-66
2023/08/23 05:50:05;;;;;;;14.87;9.30;;;24.20;34.60;;;;;;5008175;28;46733;-67
2023/08/23 05:52:30;;;;;;;14.93;8.70;;;24.20;34.50;;;;;;5008155;28;46405;-66
2023/08/23 05:54:56;;;;;;;18.20;9.53;;;24.80;33.20;;;;;;5006702;28;45977;-66
2023/08/23 05:57:21;;;;;;;14.23;8.30;;;25.90;28.90;;;;;;5007273;28;46991;-67
2023/08/23 05:59:47;;;;;;;15.73;8.07;;;26.40;28.80;;;;;;5008885;28;46579;-66
2023/08/23 06:02:12;;;;;;;12.10;8.87;;;27.20;27.10;;;;;;5006372;28;46541;-67
2023/08/23 06:04:38;;;;;;;17.17;8.77;;;27.80;25.60;;;;;;5007752;28;46501;-65
2023/08/23 06:07:05;;;;;;;12.20;8.77;;;28.60;22.00;;;;;;5005317;28;46517;-67
2023/08/23 06:09:33;;;;;;;19.20;8.83;;;28.90;22.30;;;;;;5006772;28;46371;-67
2023/08/23 06:12:00;;;;;;;15.60;9.17;;;29.30;20.80;;;;;;4991346;28;46467;-67
2023/08/23 06:14:26;;;;;;;21.90;8.47;;;29.80;17.70;;;;;;5039211;22;46795;-65
2023/08/23 06:16:51;;;;;;;16.13;7.90;;;30.00;16.70;;;;;;5056347;28;46508;-66
2023/08/23 06:19:17;;;;;;;12.80;8.00;;;29.90;18.10;;;;;;5057773;28;46477;-66
2023/08/23 06:21:43;;;;;;;18.03;8.90;;;29.30;18.90;;;;;;5058735;28;46022;-66
2023/08/23 06:24:09;;;;;;;13.57;8.77;;;29.00;19.30;;;;;;5058607;28;46875;-69
2023/08/23 06:26:35;;;;;;;11.50;8.53;;;28.80;17.50;;;;;;5051400;28;46457;-66
2023/08/23 06:29:01;;;;;;;16.20;9.07;;;29.40;16.30;;;;;;5056333;28;46453;-66
2023/08/23 06:31:26;;;;;;;12.37;8.40;;;29.30;17.10;;;;;;5057503;28;46434;-65
2023/08/23 06:33:52;;;;;;;15.80;8.30;;;29.00;17.10;;;;;;5057304;28;46584;-69
2023/08/23 06:36:18;;;;;;;12.33;9.47;;;28.60;17.20;;;;;;5055293;28;46450;-69
2023/08/23 06:38:44;;;;;;;16.50;9.30;;;28.60;18.30;;;;;;5057397;28;46573;-69
2023/08/23 06:41:10;;;;;;;13.67;8.87;;;28.50;18.50;;;;;;5057033;28;46438;-68
2023/08/23 06:43:35;;;;;;;14.10;8.70;;;28.60;18.40;;;;;;5058297;28;46355;-68
2023/08/23 06:46:01;;;;;;;12.60;8.03;;;28.90;16.10;;;;;;5054989;28;46830;-70
2023/08/23 06:48:27;;;;;;;15.83;8.60;;;28.90;17.00;;;;;;5057628;28;47003;-69
2023/08/23 06:50:54;;;;;;;20.87;7.73;;;28.80;16.90;;;;;;5055121;28;46467;-68
2023/08/23 06:53:20;;;;;;;10.80;7.70;;;28.50;17.20;;;;;;5055150;28;46891;-69
2023/08/23 06:55:45;;;;;;;11.60;7.20;;;28.40;16.50;;;;;;5056146;28;46641;-68
2023/08/23 06:58:11;;;;;;;9.63;7.07;;;28.40;17.10;;;;;;5055786;28;46532;-73
2023/08/23 07:00:37;;;;;;;12.57;6.97;;;28.30;16.70;;;;;;5057579;28;46726;-71
2023/08/23 07:03:03;;;;;;;15.00;6.97;;;28.10;16.90;;;;;;5056384;28;46766;-71
2023/08/23 07:05:28;;;;;;;10.10;6.60;;;27.90;17.20;;;;;;5057481;28;46536;-71
2023/08/23 07:07:54;;;;;;;10.30;7.30;;;27.70;16.40;;;;;;5054840;28;46493;-71
2023/08/23 07:10:20;;;;;;;10.23;7.40;;;27.60;17.80;;;;;;5055542;27;46506;-71
2023/08/23 07:12:46;;;;;;;11.50;7.80;;;27.60;17.70;;;;;;5057910;28;46427;-71
2023/08/23 07:15:11;;;;;;;15.40;7.50;;;27.70;17.60;;;;;;5056168;28;46357;-70
2023/08/23 07:17:38;;;;;;;12.77;7.50;;;27.90;16.30;;;;;;5055888;28;46423;-72
2023/08/23 07:20:05;;;;;;;14.47;8.63;;;28.00;17.10;;;;;;5056504;28;46478;-70
2023/08/23 07:22:31;;;;;;;12.97;8.60;;;27.90;17.10;;;;;;5057498;28;46823;-70
2023/08/23 07:24:56;;;;;;;14.37;8.77;;;27.80;17.30;;;;;;5055857;28;46481;-65
2023/08/23 07:27:22;;;;;;;13.67;8.60;;;27.80;15.70;;;;;;5054613;28;46799;-66
2023/08/23 07:29:48;;;;;;;15.60;7.87;;;28.00;16.50;;;;;;5057637;28;46828;-65
2023/08/23 07:32:13;;;;;;;10.73;5.70;;;28.50;14.80;;;;;;5056039;28;45910;-65
2023/08/23 07:34:39;;;;;;;10.17;6.60;;;28.50;15.30;;;;;;5056036;28;47263;-66
2023/08/23 07:37:06;;;;;;;12.93;7.43;;;28.70;13.70;;;;;;5055362;28;46493;-66
2023/08/23 07:39:31;;;;;;;11.23;6.00;;;28.80;14.40;;;;;;5055770;28;46803;-66
2023/08/23 07:41:57;;;;;;;9.20;5.70;;;29.00;14.00;;;;;;5055547;28;46777;-66
2023/08/23 07:44:23;;;;;;;10.80;5.97;;;29.10;13.70;;;;;;5055888;28;46423;-68
2023/08/23 07:46:48;;;;;;;7.97;5.37;;;29.20;12.50;;;;;;5055756;28;46513;-67
2023/08/23 07:49:17;;;;;;;11.93;5.23;;;29.20;12.20;;;;;;5056039;28;46572;-65
2023/08/23 07:51:43;;;;;;;6.83;5.10;;;29.30;12.90;;;;;;5056207;28;46459;-65
2023/08/23 07:54:08;;;;;;;11.17;5.53;;;29.20;12.70;;;;;;5055607;28;46388;-65
2023/08/23 07:56:34;;;;;;;9.87;5.77;;;29.20;12.00;;;;;;5055891;28;46728;-66
2023/08/23 07:59:00;;;;;;;6.37;5.07;;;29.30;12.80;;;;;;5056197;28;46434;-66
2023/08/23 08:01:26;;;;;;;11.67;6.10;;;29.30;12.50;;;;;;5056665;28;46505;-66
2023/08/23 08:03:52;;;;;;;9.60;5.60;;;29.40;12.20;;;;;;5055359;28;46499;-66
2023/08/23 08:06:18;;;;;;;14.37;5.80;;;29.40;11.10;;;;;;5054014;28;46479;-65
2023/08/23 08:08:44;;;;;;;11.57;5.47;;;29.40;11.90;;;;;;5055144;28;46406;-67
2023/08/23 08:11:11;;;;;;;14.37;6.80;;;29.40;11.80;;;;;;5047941;28;45880;-66
2023/08/23 08:13:36;;;;;;;14.13;6.27;;;29.30;11.50;;;;;;5055465;28;47342;-67
2023/08/23 08:16:07;;;;;;;12.40;5.50;;;28.90;11.60;;;;;;5054782;28;46378;-66
2023/08/23 08:18:32;;;;;;;7.50;5.50;;;28.90;12.30;;;;;;5055785;28;46426;-67
2023/08/23 08:20:59;;;;;;;13.97;5.80;;;28.90;12.40;;;;;;5057813;28;46735;-66
2023/08/23 08:23:25;;;;;;;11.10;5.13;;;29.10;11.90;;;;;;5070586;27;47155;-66
2023/08/23 08:25:51;;;;;;;10.33;5.87;;;29.30;10.60;;;;;;5056730;28;46466;-65
2023/08/23 08:28:16;;;;;;;12.20;5.77;;;29.30;11.20;;;;;;5059791;28;46524;-65
2023/08/23 08:30:42;;;;;;;14.70;5.97;;;29.10;11.30;;;;;;5059089;28;46573;-65
2023/08/23 08:33:07;;;;;;;8.23;6.10;;;29.30;11.00;;;;;;5056305;28;47263;-71
2023/08/23 08:35:33;;;;;;;11.40;6.30;;;29.30;11.00;;;;;;5058777;28;46452;-69
2023/08/23 08:37:58;;;;;;;11.90;6.00;;;29.60;9.70;;;;;;5057439;27;46253;-70
2023/08/23 08:40:24;;;;;;;7.70;5.43;;;29.70;10.50;;;;;;5058543;28;46629;-68
2023/08/23 08:42:51;;;;;;;11.93;5.80;;;29.70;10.60;;;;;;5058544;28;47318;-68
2023/08/23 08:45:16;;;;;;;8.23;5.47;;;29.90;10.20;;;;;;5057830;28;46603;-70
2023/08/23 08:47:42;;;;;;;9.67;5.57;;;30.10;8.90;;;;;;5058072;28;46450;-68
2023/08/23 08:50:08;;;;;;;9.37;5.50;;;30.20;9.50;;;;;;5058009;28;46604;-67
2023/08/23 08:52:38;;;;;;;23.77;7.63;;;30.20;9.30;;;;;;5057707;28;46170;-68
2023/08/23 08:55:04;;;;;;;14.40;6.73;;;29.90;8.90;;;;;;5058413;28;46352;-72
2023/08/23 08:57:32;;;;;;;12.10;6.60;;;29.90;9.20;;;;;;5055195;28;46512;-69
2023/08/23 08:59:59;;;;;;;15.07;7.70;;;29.90;10.20;;;;;;5057806;28;46471;-69
2023/08/23 09:02:27;;;;;;;11.13;7.27;;;29.60;9.80;;;;;;5055512;28;46876;-69
2023/08/23 09:04:53;;;;;;;11.07;6.50;;;29.60;10.70;;;;;;5058391;28;46410;-68
2023/08/23 09:07:19;;;;;;;8.53;6.03;;;29.90;9.60;;;;;;5056616;28;46498;-67
2023/08/23 09:09:44;;;;;;;9.30;5.60;;;29.90;10.20;;;;;;5058979;28;46519;-66
2023/08/23 09:12:10;;;;;;;13.03;6.00;;;30.10;9.70;;;;;;5058256;28;47204;-67
2023/08/23 09:14:39;;;;;;;10.70;5.60;;;30.30;9.20;;;;;;5057747;28;46622;-69
2023/08/23 09:17:05;;;;;;;13.63;6.00;;;30.30;8.10;;;;;;5058096;28;46490;-69
2023/08/23 09:19:35;;;;;;;8.63;5.47;;;30.40;8.90;;;;;;5058069;28;46350;-66
2023/08/23 09:22:04;;;;;;;7.80;4.80;;;30.30;8.90;;;;;;5057073;28;46501;-70
2023/08/23 09:24:30;;;;;;;8.90;5.20;;;30.30;9.20;;;;;;5057291;28;46446;-68
2023/08/23 09:26:55;;;;;;;11.20;5.00;;;30.60;8.10;;;;;;5057772;28;46400;-69
2023/08/23 09:29:24;;;;;;;7.67;4.70;;;30.80;7.60;;;;;;5056311;28;46510;-70
2023/08/23 09:31:49;;;;;;;10.00;4.57;;;30.80;8.00;;;;;;5058988;28;46508;-68
2023/08/23 09:34:16;;;;;;;7.43;4.20;;;30.80;7.90;;;;;;5056567;28;46389;-68
2023/08/23 09:36:41;;;;;;;12.97;5.23;;;30.90;6.30;;;;;;5057169;28;46761;-68
2023/08/23 09:39:11;;;;;;;7.07;5.50;;;30.90;6.90;;;;;;5057408;28;47134;-71
2023/08/23 09:41:37;;;;;;;7.47;4.93;;;30.90;7.30;;;;;;5056493;28;47118;-67
2023/08/23 09:44:04;;;;;;;8.07;5.10;;;30.90;6.90;;;;;;5057961;28;46476;-66
2023/08/23 09:46:36;;;;;;;7.50;4.97;;;30.90;5.70;;;;;;5057738;28;46816;-68
2023/08/23 09:49:06;;;;;;;8.80;5.13;;;30.90;6.70;;;;;;5058411;28;46656;-67
2023/08/23 09:51:36;;;;;;;11.27;4.97;;;30.90;6.90;;;;;;5057496;28;47224;-68
2023/08/23 09:54:11;;;;;;;9.57;5.10;;;30.90;6.80;;;;;;5057732;28;46355;-70
2023/08/23 09:56:39;;;;;;;7.73;5.03;;;30.90;6.30;;;;;;5057027;28;46416;-70
2023/08/23 09:59:05;;;;;;;6.77;4.67;;;30.90;6.60;;;;;;5057100;28;46413;-67
2023/08/23 10:01:30;;;;;;;10.47;5.20;;;30.80;7.00;;;;;;5058035;28;47314;-68
2023/08/23 10:03:56;;;;;;;8.53;4.50;;;30.70;7.30;;;;;;5057977;28;46572;-68
2023/08/23 10:06:22;;;;;;;9.30;4.50;;;30.70;6.60;;;;;;5056142;28;46158;-68
2023/08/23 10:08:48;;;;;;;11.07;4.60;;;30.70;7.30;;;;;;5057592;28;46757;-67
2023/08/23 10:11:14;;;;;;;11.00;4.97;;;30.80;7.40;;;;;;5056951;28;46926;-64
2023/08/23 10:13:41;;;;;;;7.60;4.43;;;31.10;6.90;;;;;;5058305;28;46439;-65
2023/08/23 10:16:08;;;;;;;9.60;4.80;;;31.20;6.00;;;;;;5057260;28;46526;-65
2023/08/23 10:18:34;;;;;;;8.10;4.80;;;31.20;6.80;;;;;;5056718;28;46807;-66
2023/08/23 10:21:02;;;;;;;12.47;4.43;;;31.30;6.80;;;;;;5057710;28;46398;-65
2023/08/23 10:23:29;;;;;;;10.93;5.27;;;31.20;6.80;;;;;;5057412;28;46482;-66
2023/08/23 10:25:54;;;;;;;8.33;5.10;;;31.30;5.90;;;;;;5057409;28;46497;-65
2023/08/23 10:28:20;;;;;;;7.90;4.83;;;31.30;6.90;;;;;;5057307;28;46538;-66
2023/08/23 10:30:49;;;;;;;10.30;4.53;;;31.30;6.80;;;;;;5056746;28;46202;-66
2023/08/23 10:33:16;;;;;;;10.07;4.63;;;31.40;6.90;;;;;;5057383;28;46323;-65
2023/08/23 10:35:46;;;;;;;6.80;4.40;;;31.30;5.90;;;;;;5057805;28;46427;-65
2023/08/23 10:38:12;;;;;;;5.90;4.60;;;31.30;6.90;;;;;;5056377;28;45984;-64
2023/08/23 10:40:42;;;;;;;10.63;4.90;;;31.40;6.90;;;;;;5056192;28;47029;-65
2023/08/23 10:43:13;;;;;;;16.90;5.80;;;31.40;6.50;;;;;;5049096;28;46756;-65
2023/08/23 10:46:06;;;;;;;10.60;4.70;;;31.60;5.80;;;;;;5057449;28;46940;-66
2023/08/23 10:48:31;;;;;;;12.03;4.50;;;31.70;5.60;;;;;;5053864;28;46074;-66
2023/08/23 10:50:57;;;;;;;8.43;5.27;;;31.90;5.30;;;;;;5056991;28;46654;-64
2023/08/23 10:53:24;;;;;;;12.43;4.90;;;31.90;5.40;;;;;;5055654;28;46390;-65
2023/08/23 10:55:50;;;;;;;6.23;4.40;;;32.00;4.50;;;;;;5056824;28;46615;-65
2023/08/23 10:58:16;;;;;;;7.83;4.60;;;32.00;5.10;;;;;;5056385;28;46737;-65
2023/08/23 11:00:43;;;;;;;6.90;4.03;;;32.10;4.70;;;;;;5055755;28;46520;-64
2023/08/23 11:03:12;;;;;;;7.50;4.50;;;31.80;3.50;;;;;;5056423;28;46431;-64
2023/08/23 11:05:38;;;;;;;6.03;4.03;;;31.50;3.40;;;;;;5056787;28;46685;-66
2023/08/23 11:08:05;;;;;;;6.10;4.23;;;31.10;3.50;;;;;;5056444;28;46477;-65
2023/08/23 11:10:30;;;;;;;7.03;5.00;;;31.20;4.50;;;;;;5055674;28;46585;-65
2023/08/23 11:12:56;;;;;;;8.53;4.73;;;31.40;4.70;;;;;;5057250;28;46436;-66
2023/08/23 11:15:22;;;;;;;9.33;4.10;;;31.70;4.60;;;;;;5056640;28;46440;-66
2023/08/23 11:17:48;;;;;;;7.70;4.53;;;31.90;3.00;;;;;;5056703;28;46466;-65
2023/08/23 11:20:16;;;;;;;9.60;5.07;;;32.00;3.70;;;;;;5053241;28;46488;-65
2023/08/23 11:22:42;;;;;;;8.63;4.67;;;31.90;3.40;;;;;;5056069;28;46489;-64
2023/08/23 11:25:08;;;;;;;11.90;4.73;;;31.90;3.10;;;;;;5056221;28;46345;-65
2023/08/23 11:27:33;;;;;;;8.53;4.50;;;32.10;1.50;;;;;;5056105;28;45964;-64
2023/08/23 11:30:01;;;;;;;11.03;5.30;;;32.10;2.40;;;;;;5055074;28;46454;-65
2023/08/23 11:32:26;;;;;;;7.20;4.37;;;32.20;2.20;;;;;;5055691;28;46770;-67
2023/08/23 11:34:54;;;;;;;13.40;5.10;;;32.60;1.70;;;;;;5056671;28;46793;-65
2023/08/23 11:37:22;;;;;;;8.97;4.80;;;33.00;1.00;;;;;;5053930;28;46962;-66
2023/08/23 11:39:58;;;;;;;9.37;4.80;;;33.00;1.00;;;;;;5056965;28;47019;-65
2023/08/23 11:42:25;;;;;;;10.70;5.07;;;33.20;1.00;;;;;;5054924;28;46236;-65
2023/08/23 11:44:55;;;;;;;10.50;4.93;;;33.20;1.00;;;;;;5057129;28;46501;-67
2023/08/23 11:47:25;;;;;;;10.60;5.00;;;33.10;1.00;;;;;;5055302;28;46491;-65
2023/08/23 11:49:52;;;;;;;9.97;4.37;;;33.20;1.10;;;;;;5053856;28;46432;-66
2023/08/23 11:52:18;;;;;;;10.93;4.80;;;32.40;1.50;;;;;;5053956;28;45950;-66
2023/08/23 11:54:44;;;;;;;13.20;5.23;;;31.20;2.60;;;;;;5056190;28;46400;-65
2023/08/23 11:57:13;;;;;;;8.67;4.67;;;31.10;3.10;;;;;;5056042;28;46681;-66
2023/08/23 11:59:39;;;;;;;8.00;5.30;;;30.80;4.40;;;;;;5054282;28;46207;-64
2023/08/23 12:02:06;;;;;;;12.13;4.70;;;30.50;4.80;;;;;;5055869;28;46412;-65
2023/08/23 12:04:32;;;;;;;14.13;4.90;;;30.80;5.20;;;;;;5054965;28;46497;-65
2023/08/23 12:06:58;;;;;;;17.20;5.87;;;30.80;4.20;;;;;;5056390;28;46579;-65
2023/08/23 12:09:25;;;;;;;12.43;4.90;;;30.90;5.00;;;;;;5055860;28;46572;-65
2023/08/23 12:11:52;;;;;;;12.63;4.97;;;31.30;4.60;;;;;;5055569;28;46766;-65
2023/08/23 12:14:18;;;;;;;7.90;4.40;;;31.60;4.20;;;;;;5055494;28;46376;-64
2023/08/23 12:16:44;;;;;;;8.07;4.73;;;31.80;3.00;;;;;;5055552;28;46541;-69
2023/08/23 12:19:10;;;;;;;8.40;5.30;;;31.80;4.10;;;;;;5056411;28;47262;-70
2023/08/23 12:21:35;;;;;;;7.37;4.60;;;32.00;3.40;;;;;;5055671;28;46458;-69
2023/08/23 12:24:01;;;;;;;8.20;4.83;;;32.10;3.10;;;;;;5055358;28;46430;-65
2023/08/23 12:26:27;;;;;;;13.80;4.90;;;32.40;1.60;;;;;;5052199;28;46400;-66
2023/08/23 12:28:52;;;;;;;11.00;4.53;;;32.30;2.40;;;;;;5055884;28;46876;-67
2023/08/23 12:31:19;;;;;;;11.03;4.60;;;32.40;2.20;;;;;;5054141;28;46496;-65
2023/08/23 12:33:45;;;;;;;8.30;4.50;;;32.70;1.00;;;;;;5055598;28;46581;-68
2023/08/23 12:36:12;;;;;;;11.80;4.93;;;32.70;1.80;;;;;;5055196;28;46634;-65